sensor_id;sensor_type;location;lat;lon;timestamp;P1;P2;P0
76043;PMS7003;64740;34.694;33.088;2023-05-07T00:01:51;6.3;5.1;4.1
76043;PMS7003;64740;34.694;33.088;2023-05-07T00:06:41;6.2;5.7;4.5
76043;PMS7003;64740;34.694;33.088;2023-05-07T00:11:19;5.7;5;4
76043;PMS7003;64740;34.694;33.088;2023-05-07T00:16:53;5.6;4.8;3.7
76043;PMS7003;64740;34.694;33.088;2023-05-07T00:21:19;5.1;4.5;3.6
76043;PMS7003;64740;34.694;33.088;2023-05-07T00:26:39;5.6;4.8;3.7
76043;PMS7003;64740;34.694;33.088;2023-05-07T00:31:37;6.1;5.2;4
76043;PMS7003;64740;34.694;33.088;2023-05-07T00:36:19;5.2;4.9;3.7
76043;PMS7003;64740;34.694;33.088;2023-05-07T00:42:01;5.3;4.6;3.7
76043;PMS7003;64740;34.694;33.088;2023-05-07T00:46:51;4.9;4.5;3.4
76043;PMS7003;64740;34.694;33.088;2023-05-07T00:51:19;4.8;4.4;3.4
76043;PMS7003;64740;34.694;33.088;2023-05-07T00:57:02;4.5;4.2;3.2
76043;PMS7003;64740;34.694;33.088;2023-05-07T01:01:41;5;4.4;3.4
76043;PMS7003;64740;34.694;33.088;2023-05-07T01:06:31;5.5;4.5;3.4
76043;PMS7003;64740;34.694;33.088;2023-05-07T01:11:31;4.7;4.3;3.2
76043;PMS7003;64740;34.694;33.088;2023-05-07T01:17:01;5.6;4.4;3.4
76043;PMS7003;64740;34.694;33.088;2023-05-07T01:21:19;5.5;4.8;3.8
76043;PMS7003;64740;34.694;33.088;2023-05-07T01:27:01;4.5;3.9;3.1
76043;PMS7003;64740;34.694;33.088;2023-05-07T01:32:00;5.2;4.2;3.4
76043;PMS7003;64740;34.694;33.088;2023-05-07T01:36:53;4.4;4;3.1
76043;PMS7003;64740;34.694;33.088;2023-05-07T01:41:37;5.3;4.6;3.3
76043;PMS7003;64740;34.694;33.088;2023-05-07T01:46:53;6.2;5.4;4.1
76043;PMS7003;64740;34.694;33.088;2023-05-07T01:51:49;5.8;4.9;3.4
76043;PMS7003;64740;34.694;33.088;2023-05-07T01:56:49;5.8;4.6;3.6
76043;PMS7003;64740;34.694;33.088;2023-05-07T02:01:41;5.3;4.5;3.6
76043;PMS7003;64740;34.694;33.088;2023-05-07T02:07:01;5.7;4.9;3.7
76043;PMS7003;64740;34.694;33.088;2023-05-07T02:11:49;5.8;4.7;3.7
76043;PMS7003;64740;34.694;33.088;2023-05-07T02:16:19;5.1;4.7;3.9
76043;PMS7003;64740;34.694;33.088;2023-05-07T02:21:43;4.9;4.6;3.6
76043;PMS7003;64740;34.694;33.088;2023-05-07T02:26:49;5.4;4.6;3.8
76043;PMS7003;64740;34.694;33.088;2023-05-07T02:31:19;5.2;4.6;3.7
76043;PMS7003;64740;34.694;33.088;2023-05-07T02:36:53;6.7;5.3;4
76043;PMS7003;64740;34.694;33.088;2023-05-07T02:41:53;5.7;4.8;3.9
76043;PMS7003;64740;34.694;33.088;2023-05-07T02:46:19;5.4;4.6;3.6
76043;PMS7003;64740;34.694;33.088;2023-05-07T02:52:03;5.2;4.6;3.5
76043;PMS7003;64740;34.694;33.088;2023-05-07T02:56:19;5;4.5;3.7
76043;PMS7003;64740;34.694;33.088;2023-05-07T03:02:01;5.5;4.3;3.4
76043;PMS7003;64740;34.694;33.088;2023-05-07T03:06:49;5.7;4.7;3.4
76043;PMS7003;64740;34.694;33.088;2023-05-07T03:11:41;6.5;5.1;4
76043;PMS7003;64740;34.694;33.088;2023-05-07T03:16:41;5.5;4.5;3.6
76043;PMS7003;64740;34.694;33.088;2023-05-07T03:21:21;5.4;4.2;3.3
76043;PMS7003;64740;34.694;33.088;2023-05-07T03:26:19;6;4.9;3.9
76043;PMS7003;64740;34.694;33.088;2023-05-07T03:31:41;5.5;4.8;3.9
76043;PMS7003;64740;34.694;33.088;2023-05-07T03:36:19;6.2;5.4;4.1
76043;PMS7003;64740;34.694;33.088;2023-05-07T03:41:32;6.2;5.2;4.3
76043;PMS7003;64740;34.694;33.088;2023-05-07T03:47:01;6.2;5.6;4.6
76043;PMS7003;64740;34.694;33.088;2023-05-07T03:51:53;6.5;6.1;4.7
76043;PMS7003;64740;34.694;33.088;2023-05-07T03:56:19;7.1;6.1;4.7
76043;PMS7003;64740;34.694;33.088;2023-05-07T04:02:01;5.8;5;4.1
76043;PMS7003;64740;34.694;33.088;2023-05-07T04:06:29;6.7;5.5;4.4
76043;PMS7003;64740;34.694;33.088;2023-05-07T04:11:29;6;5.1;4.3
76043;PMS7003;64740;34.694;33.088;2023-05-07T04:16:49;6;5.3;4.1
76043;PMS7003;64740;34.694;33.088;2023-05-07T04:22:01;5.8;4.9;3.9
76043;PMS7003;64740;34.694;33.088;2023-05-07T04:26:31;5.4;5.2;4.2
76043;PMS7003;64740;34.694;33.088;2023-05-07T04:32:01;6.3;5.1;4
76043;PMS7003;64740;34.694;33.088;2023-05-07T04:37:01;4.9;4.6;3.7
76043;PMS7003;64740;34.694;33.088;2023-05-07T04:41:53;7.5;6.4;5.3
76043;PMS7003;64740;34.694;33.088;2023-05-07T04:46:31;7.8;6.9;5.4
76043;PMS7003;64740;34.694;33.088;2023-05-07T04:51:21;7.7;6.4;5.1
76043;PMS7003;64740;34.694;33.088;2023-05-07T04:56:49;6.5;5.9;4.7
76043;PMS7003;64740;34.694;33.088;2023-05-07T05:01:49;7.3;6.2;5.2
76043;PMS7003;64740;34.694;33.088;2023-05-07T05:06:31;6.7;6.2;5.1
76043;PMS7003;64740;34.694;33.088;2023-05-07T05:12:01;5.7;4.9;3.9
76043;PMS7003;64740;34.694;33.088;2023-05-07T05:16:49;4.5;4;3.2
76043;PMS7003;64740;34.694;33.088;2023-05-07T05:21:19;5.3;4.3;3.2
76043;PMS7003;64740;34.694;33.088;2023-05-07T05:26:41;3.3;3.1;2.3
76043;PMS7003;64740;34.694;33.088;2023-05-07T05:31:49;4.1;3;2.3
76043;PMS7003;64740;34.694;33.088;2023-05-07T05:36:19;3.6;2.8;2.3
76043;PMS7003;64740;34.694;33.088;2023-05-07T05:41:53;3.4;2.6;2.2
76043;PMS7003;64740;34.694;33.088;2023-05-07T05:46:53;3.9;3.2;2.5
76043;PMS7003;64740;34.694;33.088;2023-05-07T05:51:31;4.2;3;2.4
76043;PMS7003;64740;34.694;33.088;2023-05-07T05:57:01;4.2;3.1;2.5
76043;PMS7003;64740;34.694;33.088;2023-05-07T06:01:41;3.6;2.8;2.4
76043;PMS7003;64740;34.694;33.088;2023-05-07T06:06:19;3.5;3.1;2.5
76043;PMS7003;64740;34.694;33.088;2023-05-07T06:11:49;4.9;3.7;2.9
76043;PMS7003;64740;34.694;33.088;2023-05-07T06:17:03;4.7;3.7;2.8
76043;PMS7003;64740;34.694;33.088;2023-05-07T06:21:43;5.1;4.1;3.1
76043;PMS7003;64740;34.694;33.088;2023-05-07T06:26:51;4;3.7;3.1
76043;PMS7003;64740;34.694;33.088;2023-05-07T06:31:49;3.8;3;2.1
76043;PMS7003;64740;34.694;33.088;2023-05-07T06:36:57;5.7;5;3.8
76043;PMS7003;64740;34.694;33.088;2023-05-07T06:41:36;5.2;4.4;3.7
76043;PMS7003;64740;34.694;33.088;2023-05-07T06:46:29;4.7;3.8;3.2
76043;PMS7003;64740;34.694;33.088;2023-05-07T06:52:05;4.1;3.1;2.3
76043;PMS7003;64740;34.694;33.088;2023-05-07T06:57:05;3.9;2.7;2.1
76043;PMS7003;64740;34.694;33.088;2023-05-07T07:01:19;4;3.2;2.5
76043;PMS7003;64740;34.694;33.088;2023-05-07T07:07:05;3.6;3;2.2
76043;PMS7003;64740;34.694;33.088;2023-05-07T07:11:31;4;3.7;2.9
76043;PMS7003;64740;34.694;33.088;2023-05-07T07:16:19;4.3;3.1;2.5
76043;PMS7003;64740;34.694;33.088;2023-05-07T07:21:53;3.9;3;2.3
76043;PMS7003;64740;34.694;33.088;2023-05-07T07:26:49;5;3.5;2.7
76043;PMS7003;64740;34.694;33.088;2023-05-07T07:31:19;4.1;3;2.4
76043;PMS7003;64740;34.694;33.088;2023-05-07T07:37:05;4;3.4;2.5
76043;PMS7003;64740;34.694;33.088;2023-05-07T07:42:05;4;3.2;2.3
76043;PMS7003;64740;34.694;33.088;2023-05-07T07:46:57;3.5;3.2;2.5
76043;PMS7003;64740;34.694;33.088;2023-05-07T07:51:31;4.4;3.1;2.4
76043;PMS7003;64740;34.694;33.088;2023-05-07T07:56:55;3.3;2.9;2.3
76043;PMS7003;64740;34.694;33.088;2023-05-07T08:01:51;3.6;3;2.3
76043;PMS7003;64740;34.694;33.088;2023-05-07T08:06:39;4.2;3;2.5
76043;PMS7003;64740;34.694;33.088;2023-05-07T08:11:19;4.4;3.4;2.7
76043;PMS7003;64740;34.694;33.088;2023-05-07T08:17:05;3.8;3;2.2
76043;PMS7003;64740;34.694;33.088;2023-05-07T08:21:53;4.3;3.4;2.8
76043;PMS7003;64740;34.694;33.088;2023-05-07T08:26:39;4.1;3.5;2.6
76043;PMS7003;64740;34.694;33.088;2023-05-07T08:31:45;4.1;3.2;2.5
76043;PMS7003;64740;34.694;33.088;2023-05-07T08:36:49;3.7;3.2;2.4
76043;PMS7003;64740;34.694;33.088;2023-05-07T08:41:19;3.6;2.6;2
76043;PMS7003;64740;34.694;33.088;2023-05-07T08:46:57;4.4;3.3;2.7
76043;PMS7003;64740;34.694;33.088;2023-05-07T08:51:57;3.8;3.2;2.6
76043;PMS7003;64740;34.694;33.088;2023-05-07T08:56:31;3.3;2.8;2.3
76043;PMS7003;64740;34.694;33.088;2023-05-07T09:02:04;3.7;3.4;2.8
76043;PMS7003;64740;34.694;33.088;2023-05-07T09:06:41;3.9;3.2;2.5
76043;PMS7003;64740;34.694;33.088;2023-05-07T09:11:31;3.8;3.1;2.5
76043;PMS7003;64740;34.694;33.088;2023-05-07T09:16:51;4.3;3.4;2.7
76043;PMS7003;64740;34.694;33.088;2023-05-07T09:22:04;4;3.3;2.5
76043;PMS7003;64740;34.694;33.088;2023-05-07T09:26:21;3.9;3.3;2.6
76043;PMS7003;64740;34.694;33.088;2023-05-07T09:31:54;5.2;4.3;3.4
76043;PMS7003;64740;34.694;33.088;2023-05-07T09:36:49;5;4.3;3.6
76043;PMS7003;64740;34.694;33.088;2023-05-07T09:41:55;5.8;4.5;3.2
76043;PMS7003;64740;34.694;33.088;2023-05-07T09:46:31;6.2;5.4;4.1
76043;PMS7003;64740;34.694;33.088;2023-05-07T09:51:21;5.3;4.8;3.8
76043;PMS7003;64740;34.694;33.088;2023-05-07T09:57:06;5.6;4.8;4
76043;PMS7003;64740;34.694;33.088;2023-05-07T10:02:04;5.3;4.6;3.4
76043;PMS7003;64740;34.694;33.088;2023-05-07T10:06:41;5.5;4.9;3.7
76043;PMS7003;64740;34.694;33.088;2023-05-07T10:11:53;5.5;4.9;4
76043;PMS7003;64740;34.694;33.088;2023-05-07T10:16:40;6;4.7;3.7
76043;PMS7003;64740;34.694;33.088;2023-05-07T10:21:20;6.6;6;4.3
76043;PMS7003;64740;34.694;33.088;2023-05-07T10:26:50;6.3;5.3;4.2
76043;PMS7003;64740;34.694;33.088;2023-05-07T10:32:09;6.7;6;4.3
76043;PMS7003;64740;34.694;33.088;2023-05-07T10:36:20;6.2;5.7;4.5
76043;PMS7003;64740;34.694;33.088;2023-05-07T10:41:20;6.3;5.4;4.1
76043;PMS7003;64740;34.694;33.088;2023-05-07T10:47:04;6.3;5.2;4.2
76043;PMS7003;64740;34.694;33.088;2023-05-07T10:51:20;6.2;5.5;4.4
76043;PMS7003;64740;34.694;33.088;2023-05-07T10:56:23;6.3;5.8;4.5
76043;PMS7003;64740;34.694;33.088;2023-05-07T11:01:58;7.4;6.4;5.1
76043;PMS7003;64740;34.694;33.088;2023-05-07T11:07:24;7.1;6.4;4.8
76043;PMS7003;64740;34.694;33.088;2023-05-07T11:11:50;6.9;6.4;4.8
76043;PMS7003;64740;34.694;33.088;2023-05-07T11:16:20;7.1;6.3;4.8
76043;PMS7003;64740;34.694;33.088;2023-05-07T11:21:34;7.8;6.6;5.3
76043;PMS7003;64740;34.694;33.088;2023-05-07T11:26:54;8.5;7.5;5.6
76043;PMS7003;64740;34.694;33.088;2023-05-07T11:31:32;7;6.3;4.7
76043;PMS7003;64740;34.694;33.088;2023-05-07T11:36:46;7.6;6.9;5.3
76043;PMS7003;64740;34.694;33.088;2023-05-07T11:41:38;7.7;7.1;5.4
76043;PMS7003;64740;34.694;33.088;2023-05-07T11:46:38;9.7;9.2;7.2
76043;PMS7003;64740;34.694;33.088;2023-05-07T11:52:06;10.5;9.2;7.2
76043;PMS7003;64740;34.694;33.088;2023-05-07T11:56:58;10.4;9;7.1
76043;PMS7003;64740;34.694;33.088;2023-05-07T12:01:46;8.2;7.3;5.8
76043;PMS7003;64740;34.694;33.088;2023-05-07T12:07:06;10.6;10.3;7.9
76043;PMS7003;64740;34.694;33.088;2023-05-07T12:11:42;10.3;9.8;7.6
76043;PMS7003;64740;34.694;33.088;2023-05-07T12:16:20;11;9.9;7.4
76043;PMS7003;64740;34.694;33.088;2023-05-07T12:21:52;9.6;8.7;6.8
76043;PMS7003;64740;34.694;33.088;2023-05-07T12:27:08;10.9;9.9;7.6
76043;PMS7003;64740;34.694;33.088;2023-05-07T12:31:20;11.1;10.2;7.6
76043;PMS7003;64740;34.694;33.088;2023-05-07T12:37:06;9.9;8.6;6.2
76043;PMS7003;64740;34.694;33.088;2023-05-07T12:41:58;11;9.5;7.6
76043;PMS7003;64740;34.694;33.088;2023-05-07T12:46:58;11;9.8;7.4
76043;PMS7003;64740;34.694;33.088;2023-05-07T12:51:50;10.9;9.7;7.5
76043;PMS7003;64740;34.694;33.088;2023-05-07T12:57:03;11.2;10;7.6
76043;PMS7003;64740;34.694;33.088;2023-05-07T13:01:48;12.9;11.2;8.1
76043;PMS7003;64740;34.694;33.088;2023-05-07T13:06:50;11.5;10.2;7.7
76043;PMS7003;64740;34.694;33.088;2023-05-07T13:11:20;12.2;10.9;7.6
76043;PMS7003;64740;34.694;33.088;2023-05-07T13:17:06;11.8;10.9;8.1
76043;PMS7003;64740;34.694;33.088;2023-05-07T13:21:54;11.6;10.4;7.6
76043;PMS7003;64740;34.694;33.088;2023-05-07T13:26:20;12.3;10.7;8
76043;PMS7003;64740;34.694;33.088;2023-05-07T13:31:46;11.1;10.7;8
76043;PMS7003;64740;34.694;33.088;2023-05-07T13:36:50;11.6;10.5;7.6
76043;PMS7003;64740;34.694;33.088;2023-05-07T13:41:26;11.5;9.7;7.5
76043;PMS7003;64740;34.694;33.088;2023-05-07T13:46:58;10.6;9.5;7.5
76043;PMS7003;64740;34.694;33.088;2023-05-07T13:51:58;11.6;10.6;8.1
76043;PMS7003;64740;34.694;33.088;2023-05-07T13:56:32;11.4;10.4;7.6
76043;PMS7003;64740;34.694;33.088;2023-05-07T14:02:08;10.5;9.7;7.6
76043;PMS7003;64740;34.694;33.088;2023-05-07T14:06:20;12.1;11.3;8.1
76043;PMS7003;64740;34.694;33.088;2023-05-07T14:11:34;11;10.2;7.8
76043;PMS7003;64740;34.694;33.088;2023-05-07T14:17:08;10.8;9.8;7.4
76043;PMS7003;64740;34.694;33.088;2023-05-07T14:21:52;11.6;10.4;7.9
76043;PMS7003;64740;34.694;33.088;2023-05-07T14:26:34;11.1;10.3;8.1
76043;PMS7003;64740;34.694;33.088;2023-05-07T14:31:54;11.9;10.7;8.5
76043;PMS7003;64740;34.694;33.088;2023-05-07T14:37:06;11;10;7.8
76043;PMS7003;64740;34.694;33.088;2023-05-07T14:42:00;11.8;10.7;8.2
76043;PMS7003;64740;34.694;33.088;2023-05-07T14:46:26;11.6;10.7;8.1
76043;PMS7003;64740;34.694;33.088;2023-05-07T14:51:32;12.2;10.7;8.2
76043;PMS7003;64740;34.694;33.088;2023-05-07T14:57:06;12.3;10.8;8.2
76043;PMS7003;64740;34.694;33.088;2023-05-07T15:02:04;11.4;10.3;7.8
76043;PMS7003;64740;34.694;33.088;2023-05-07T15:06:32;11;9.8;7.5
76043;PMS7003;64740;34.694;33.088;2023-05-07T15:12:04;13.5;11;8.5
76043;PMS7003;64740;34.694;33.088;2023-05-07T15:16:42;12.6;11.4;8.6
76043;PMS7003;64740;34.694;33.088;2023-05-07T15:21:30;12.1;10.6;8
76043;PMS7003;64740;34.694;33.088;2023-05-07T15:26:52;12.3;10.8;8.2
76043;PMS7003;64740;34.694;33.088;2023-05-07T15:32:06;11.7;10.9;8.4
76043;PMS7003;64740;34.694;33.088;2023-05-07T15:36:30;11.2;10.3;7.9
76043;PMS7003;64740;34.694;33.088;2023-05-07T15:42:06;12.1;11;8.4
76043;PMS7003;64740;34.694;33.088;2023-05-07T15:47:06;12.2;10.8;8.5
76043;PMS7003;64740;34.694;33.088;2023-05-07T15:51:48;11;10.4;8.2
76043;PMS7003;64740;34.694;33.088;2023-05-07T15:56:20;11.5;10.7;8.3
76043;PMS7003;64740;34.694;33.088;2023-05-07T16:01:58;11.9;10.9;8.2
76043;PMS7003;64740;34.694;33.088;2023-05-07T16:06:40;11.4;10.6;8.1
76043;PMS7003;64740;34.694;33.088;2023-05-07T16:11:50;12.9;11.4;8.5
76043;PMS7003;64740;34.694;33.088;2023-05-07T16:16:42;12.2;11.3;8.9
76043;PMS7003;64740;34.694;33.088;2023-05-07T16:22:04;12.6;11.7;9
76043;PMS7003;64740;34.694;33.088;2023-05-07T16:26:54;12.6;11.6;8.4
76043;PMS7003;64740;34.694;33.088;2023-05-07T16:31:20;11.7;10.7;8.3
76043;PMS7003;64740;34.694;33.088;2023-05-07T16:36:30;13;11.8;8.9
76043;PMS7003;64740;34.694;33.088;2023-05-07T16:41:50;12.3;11.6;8.8
76043;PMS7003;64740;34.694;33.088;2023-05-07T16:46:20;12.2;11.5;8.3
76043;PMS7003;64740;34.694;33.088;2023-05-07T16:51:58;13.8;12.8;9.3
76043;PMS7003;64740;34.694;33.088;2023-05-07T16:56:49;13.4;12;8.9
76043;PMS7003;64740;34.694;33.088;2023-05-07T17:01:20;13.9;12;8.8
76043;PMS7003;64740;34.694;33.088;2023-05-07T17:07:08;12.3;11.6;8.9
76043;PMS7003;64740;34.694;33.088;2023-05-07T17:11:58;14.3;12.7;8.9
76043;PMS7003;64740;34.694;33.088;2023-05-07T17:16:20;13.1;12.4;9.4
76043;PMS7003;64740;34.694;33.088;2023-05-07T17:21:42;15.8;14.1;10.3
76043;PMS7003;64740;34.694;33.088;2023-05-07T17:27:06;15.1;13.5;10
76043;PMS7003;64740;34.694;33.088;2023-05-07T17:31:44;15.6;13.5;9.8
76043;PMS7003;64740;34.694;33.088;2023-05-07T17:36:54;16.6;15.3;11
76043;PMS7003;64740;34.694;33.088;2023-05-07T17:41:22;16;15;10.8
76043;PMS7003;64740;34.694;33.088;2023-05-07T17:46:58;15.9;14.2;10.5
76043;PMS7003;64740;34.694;33.088;2023-05-07T17:51:20;15.6;14.3;10.5
76043;PMS7003;64740;34.694;33.088;2023-05-07T17:56:32;15.9;14.4;10.8
76043;PMS7003;64740;34.694;33.088;2023-05-07T18:02:06;16.8;14.9;10.7
76043;PMS7003;64740;34.694;33.088;2023-05-07T18:07:06;16;14;10.8
76043;PMS7003;64740;34.694;33.088;2023-05-07T18:11:46;15.4;14.1;10.1
76043;PMS7003;64740;34.694;33.088;2023-05-07T18:17:06;15.4;14.1;10.4
76043;PMS7003;64740;34.694;33.088;2023-05-07T18:21:30;14.4;13.1;9.6
76043;PMS7003;64740;34.694;33.088;2023-05-07T18:26:20;15.1;13.4;9.8
76043;PMS7003;64740;34.694;33.088;2023-05-07T18:31:20;14.9;13.6;10
76043;PMS7003;64740;34.694;33.088;2023-05-07T18:37:06;16.2;15;11.2
76043;PMS7003;64740;34.694;33.088;2023-05-07T18:41:32;15.7;14;10.2
76043;PMS7003;64740;34.694;33.088;2023-05-07T18:46:38;15;13;9.3
76043;PMS7003;64740;34.694;33.088;2023-05-07T18:52:06;15.1;13.5;9.5
76043;PMS7003;64740;34.694;33.088;2023-05-07T18:56:30;14.2;13.2;9.8
76043;PMS7003;64740;34.694;33.088;2023-05-07T19:01:20;14;13.2;10
76043;PMS7003;64740;34.694;33.088;2023-05-07T19:06:32;14.9;13.4;9.7
76043;PMS7003;64740;34.694;33.088;2023-05-07T19:12:08;16.3;14.6;10.5
76043;PMS7003;64740;34.694;33.088;2023-05-07T19:16:52;15.4;13.2;9.8
76043;PMS7003;64740;34.694;33.088;2023-05-07T19:21:32;14.1;13.1;9.6
76043;PMS7003;64740;34.694;33.088;2023-05-07T19:27:08;15.5;14.4;10.8
76043;PMS7003;64740;34.694;33.088;2023-05-07T19:31:54;16.6;14.3;10.3
76043;PMS7003;64740;34.694;33.088;2023-05-07T19:36:32;14.1;12.6;9.7
76043;PMS7003;64740;34.694;33.088;2023-05-07T19:41:20;13.9;12.8;9.9
76043;PMS7003;64740;34.694;33.088;2023-05-07T19:46:44;15.3;13.2;9.7
76043;PMS7003;64740;34.694;33.088;2023-05-07T19:51:32;14.5;13;9.8
76043;PMS7003;64740;34.694;33.088;2023-05-07T19:56:58;15.3;13.4;9.7
76043;PMS7003;64740;34.694;33.088;2023-05-07T20:01:58;15.3;13.3;9.6
76043;PMS7003;64740;34.694;33.088;2023-05-07T20:06:20;14.1;13;9.8
76043;PMS7003;64740;34.694;33.088;2023-05-07T20:12:06;14.5;13;9.6
76043;PMS7003;64740;34.694;33.088;2023-05-07T20:16:42;14.1;12.6;9.1
76043;PMS7003;64740;34.694;33.088;2023-05-07T20:21:32;15.5;13.7;10.1
76043;PMS7003;64740;34.694;33.088;2023-05-07T20:26:48;13.8;13.3;9.7
76043;PMS7003;64740;34.694;33.088;2023-05-07T20:32:06;14.1;13.1;9.5
76043;PMS7003;64740;34.694;33.088;2023-05-07T20:36:32;14.2;12.9;9.5
76043;PMS7003;64740;34.694;33.088;2023-05-07T20:41:54;14.4;13.6;10
76043;PMS7003;64740;34.694;33.088;2023-05-07T20:46:50;13.9;12.9;9.6
76043;PMS7003;64740;34.694;33.088;2023-05-07T20:51:58;13.8;12.3;9.2
76043;PMS7003;64740;34.694;33.088;2023-05-07T20:56:38;12.9;12;8.8
76043;PMS7003;64740;34.694;33.088;2023-05-07T21:01:32;13.4;12.1;9
76043;PMS7003;64740;34.694;33.088;2023-05-07T21:07:06;12.9;12.4;9.3
76043;PMS7003;64740;34.694;33.088;2023-05-07T21:12:06;12.5;11.8;8.4
76043;PMS7003;64740;34.694;33.088;2023-05-07T21:16:32;13.2;12;8.9
76043;PMS7003;64740;34.694;33.088;2023-05-07T21:22:06;12.2;10.5;8.2
76043;PMS7003;64740;34.694;33.088;2023-05-07T21:26:20;12.2;11.1;8.4
76043;PMS7003;64740;34.694;33.088;2023-05-07T21:31:32;11.5;10.1;7.8
76043;PMS7003;64740;34.694;33.088;2023-05-07T21:36:46;12.6;11.5;8.7
76043;PMS7003;64740;34.694;33.088;2023-05-07T21:42:06;10.9;10.3;7.7
76043;PMS7003;64740;34.694;33.088;2023-05-07T21:46:42;11.5;10.8;7.8
76043;PMS7003;64740;34.694;33.088;2023-05-07T21:51:36;9.7;9.1;6.7
76043;PMS7003;64740;34.694;33.088;2023-05-07T21:57:06;10.3;9.8;7.6
76043;PMS7003;64740;34.694;33.088;2023-05-07T22:01:32;10.2;9.6;7.4
76043;PMS7003;64740;34.694;33.088;2023-05-07T22:06:36;10.1;9;6.9
76043;PMS7003;64740;34.694;33.088;2023-05-07T22:11:42;10.1;9.3;7.3
76043;PMS7003;64740;34.694;33.088;2023-05-07T22:17:02;10.4;9.9;7.2
76043;PMS7003;64740;34.694;33.088;2023-05-07T22:21:50;8.9;8.2;6.5
76043;PMS7003;64740;34.694;33.088;2023-05-07T22:26:42;9.5;8.6;6.8
76043;PMS7003;64740;34.694;33.088;2023-05-07T22:31:46;9.7;9;7
76043;PMS7003;64740;34.694;33.088;2023-05-07T22:36:54;8.3;8.1;6.2
76043;PMS7003;64740;34.694;33.088;2023-05-07T22:41:20;8.1;7.7;6.4
76043;PMS7003;64740;34.694;33.088;2023-05-07T22:46:46;8.7;7.9;6.2
76043;PMS7003;64740;34.694;33.088;2023-05-07T22:51:38;8.7;7.7;6
76043;PMS7003;64740;34.694;33.088;2023-05-07T22:56:26;8.7;8.2;6.5
76043;PMS7003;64740;34.694;33.088;2023-05-07T23:02:06;8.9;8;6.3
76043;PMS7003;64740;34.694;33.088;2023-05-07T23:06:58;8.5;8;6.4
76043;PMS7003;64740;34.694;33.088;2023-05-07T23:11:20;9.2;8;6.2
76043;PMS7003;64740;34.694;33.088;2023-05-07T23:17:06;8.7;7.9;5.9
76043;PMS7003;64740;34.694;33.088;2023-05-07T23:21:42;7.4;6.8;5.2
76043;PMS7003;64740;34.694;33.088;2023-05-07T23:26:32;8.9;8.2;6.4
76043;PMS7003;64740;34.694;33.088;2023-05-07T23:31:54;10;8.3;6.4
76043;PMS7003;64740;34.694;33.088;2023-05-07T23:36:52;8.6;8.1;6.4
76043;PMS7003;64740;34.694;33.088;2023-05-07T23:41:20;9;8;6.1
76043;PMS7003;64740;34.694;33.088;2023-05-07T23:46:22;8.3;7.8;5.9
76043;PMS7003;64740;34.694;33.088;2023-05-07T23:51:52;8.5;8;6.4
76043;PMS7003;64740;34.694;33.088;2023-05-07T23:56:58;7.4;7.3;5.9
